sensor_id;sensor_type;location;lat;lon;timestamp;temperature;humidity
69009;SHT31;56065;52.472;13.380;2023-07-16T00:01:47;25.03;75.49
69009;SHT31;56065;52.472;13.380;2023-07-16T00:04:12;24.92;76.00
69009;SHT31;56065;52.472;13.380;2023-07-16T00:06:37;24.88;76.43
69009;SHT31;56065;52.472;13.380;2023-07-16T00:09:03;24.81;75.81
69009;SHT31;56065;52.472;13.380;2023-07-16T00:11:28;24.85;76.22
69009;SHT31;56065;52.472;13.380;2023-07-16T00:13:54;24.80;76.29
69009;SHT31;56065;52.472;13.380;2023-07-16T00:16:19;24.77;76.15
69009;SHT31;56065;52.472;13.380;2023-07-16T00:18:45;24.70;76.38
69009;SHT31;56065;52.472;13.380;2023-07-16T00:21:10;24.64;76.16
69009;SHT31;56065;52.472;13.380;2023-07-16T00:23:36;24.59;76.45
69009;SHT31;56065;52.472;13.380;2023-07-16T00:26:01;24.54;76.64
69009;SHT31;56065;52.472;13.380;2023-07-16T00:28:27;24.54;76.89
69009;SHT31;56065;52.472;13.380;2023-07-16T00:30:52;24.54;77.27
69009;SHT31;56065;52.472;13.380;2023-07-16T00:33:17;24.56;77.15
69009;SHT31;56065;52.472;13.380;2023-07-16T00:35:48;24.61;77.74
69009;SHT31;56065;52.472;13.380;2023-07-16T00:38:14;24.61;77.74
69009;SHT31;56065;52.472;13.380;2023-07-16T00:40:39;24.60;77.60
69009;SHT31;56065;52.472;13.380;2023-07-16T00:43:05;24.54;77.48
69009;SHT31;56065;52.472;13.380;2023-07-16T00:45:30;24.59;77.59
69009;SHT31;56065;52.472;13.380;2023-07-16T00:47:56;24.53;77.54
69009;SHT31;56065;52.472;13.380;2023-07-16T00:50:22;24.56;77.62
69009;SHT31;56065;52.472;13.380;2023-07-16T00:52:47;24.59;77.32
69009;SHT31;56065;52.472;13.380;2023-07-16T00:55:13;24.61;77.72
69009;SHT31;56065;52.472;13.380;2023-07-16T00:57:38;24.71;77.34
69009;SHT31;56065;52.472;13.380;2023-07-16T01:00:05;24.77;77.19
69009;SHT31;56065;52.472;13.380;2023-07-16T01:02:31;24.77;77.26
69009;SHT31;56065;52.472;13.380;2023-07-16T01:04:57;24.74;77.70
69009;SHT31;56065;52.472;13.380;2023-07-16T01:07:24;24.75;77.70
69009;SHT31;56065;52.472;13.380;2023-07-16T01:09:51;24.78;77.52
69009;SHT31;56065;52.472;13.380;2023-07-16T01:12:19;24.80;77.44
69009;SHT31;56065;52.472;13.380;2023-07-16T01:14:46;24.78;77.70
69009;SHT31;56065;52.472;13.380;2023-07-16T01:17:11;24.94;77.26
69009;SHT31;56065;52.472;13.380;2023-07-16T01:19:36;25.01;76.91
69009;SHT31;56065;52.472;13.380;2023-07-16T01:27:56;24.70;77.82
69009;SHT31;56065;52.472;13.380;2023-07-16T01:30:17;24.67;78.05
69009;SHT31;56065;52.472;13.380;2023-07-16T01:32:45;24.63;77.62
69009;SHT31;56065;52.472;13.380;2023-07-16T01:35:12;24.54;78.01
69009;SHT31;56065;52.472;13.380;2023-07-16T01:37:39;24.39;78.60
69009;SHT31;56065;52.472;13.380;2023-07-16T01:40:06;24.40;78.57
69009;SHT31;56065;52.472;13.380;2023-07-16T01:42:33;24.44;78.37
69009;SHT31;56065;52.472;13.380;2023-07-16T01:44:59;24.43;78.24
69009;SHT31;56065;52.472;13.380;2023-07-16T01:50:03;24.47;78.09
69009;SHT31;56065;52.472;13.380;2023-07-16T01:52:29;24.54;77.39
69009;SHT31;56065;52.472;13.380;2023-07-16T01:54:54;24.70;76.77
69009;SHT31;56065;52.472;13.380;2023-07-16T01:57:20;24.78;76.38
69009;SHT31;56065;52.472;13.380;2023-07-16T01:59:45;24.88;75.82
69009;SHT31;56065;52.472;13.380;2023-07-16T02:02:11;24.68;76.00
69009;SHT31;56065;52.472;13.380;2023-07-16T02:04:36;24.87;75.70
69009;SHT31;56065;52.472;13.380;2023-07-16T02:07:02;24.83;75.67
69009;SHT31;56065;52.472;13.380;2023-07-16T02:09:29;24.64;75.80
69009;SHT31;56065;52.472;13.380;2023-07-16T02:11:54;24.70;75.86
69009;SHT31;56065;52.472;13.380;2023-07-16T02:14:19;24.77;75.59
69009;SHT31;56065;52.472;13.380;2023-07-16T02:16:45;24.70;75.63
69009;SHT31;56065;52.472;13.380;2023-07-16T02:19:10;24.64;76.35
69009;SHT31;56065;52.472;13.380;2023-07-16T02:21:35;24.61;77.54
69009;SHT31;56065;52.472;13.380;2023-07-16T02:24:01;24.44;78.39
69009;SHT31;56065;52.472;13.380;2023-07-16T02:26:26;24.25;79.57
69009;SHT31;56065;52.472;13.380;2023-07-16T02:28:51;24.01;80.37
69009;SHT31;56065;52.472;13.380;2023-07-16T02:31:17;23.69;80.84
69009;SHT31;56065;52.472;13.380;2023-07-16T02:33:42;23.45;82.15
69009;SHT31;56065;52.472;13.380;2023-07-16T02:36:07;23.37;82.59
69009;SHT31;56065;52.472;13.380;2023-07-16T02:38:33;23.30;82.37
69009;SHT31;56065;52.472;13.380;2023-07-16T02:40:58;23.21;82.89
69009;SHT31;56065;52.472;13.380;2023-07-16T02:43:24;23.17;83.45
69009;SHT31;56065;52.472;13.380;2023-07-16T02:45:49;23.17;83.57
69009;SHT31;56065;52.472;13.380;2023-07-16T02:48:14;23.13;83.61
69009;SHT31;56065;52.472;13.380;2023-07-16T02:50:40;23.13;83.86
69009;SHT31;56065;52.472;13.380;2023-07-16T02:53:06;23.11;83.70
69009;SHT31;56065;52.472;13.380;2023-07-16T02:55:31;23.06;83.93
69009;SHT31;56065;52.472;13.380;2023-07-16T02:57:57;23.06;83.99
69009;SHT31;56065;52.472;13.380;2023-07-16T03:00:22;23.02;84.10
69009;SHT31;56065;52.472;13.380;2023-07-16T03:02:48;23.00;84.32
69009;SHT31;56065;52.472;13.380;2023-07-16T03:05:16;23.02;84.67
69009;SHT31;56065;52.472;13.380;2023-07-16T03:07:41;22.96;84.85
69009;SHT31;56065;52.472;13.380;2023-07-16T03:10:07;22.93;84.86
69009;SHT31;56065;52.472;13.380;2023-07-16T03:12:32;22.93;85.12
69009;SHT31;56065;52.472;13.380;2023-07-16T03:14:58;22.87;85.28
69009;SHT31;56065;52.472;13.380;2023-07-16T03:17:23;22.85;85.35
69009;SHT31;56065;52.472;13.380;2023-07-16T03:19:48;22.79;84.95
69009;SHT31;56065;52.472;13.380;2023-07-16T03:22:14;22.86;85.05
69009;SHT31;56065;52.472;13.380;2023-07-16T03:24:39;22.85;84.99
69009;SHT31;56065;52.472;13.380;2023-07-16T03:27:06;22.86;85.11
69009;SHT31;56065;52.472;13.380;2023-07-16T03:29:32;22.76;85.30
69009;SHT31;56065;52.472;13.380;2023-07-16T03:31:58;22.70;85.37
69009;SHT31;56065;52.472;13.380;2023-07-16T03:34:23;22.73;84.96
69009;SHT31;56065;52.472;13.380;2023-07-16T03:36:49;22.67;85.30
69009;SHT31;56065;52.472;13.380;2023-07-16T03:39:14;22.62;85.66
69009;SHT31;56065;52.472;13.380;2023-07-16T03:41:39;22.63;85.32
69009;SHT31;56065;52.472;13.380;2023-07-16T03:44:05;22.57;85.82
69009;SHT31;56065;52.472;13.380;2023-07-16T03:46:30;22.55;85.76
69009;SHT31;56065;52.472;13.380;2023-07-16T03:48:55;22.53;85.29
69009;SHT31;56065;52.472;13.380;2023-07-16T03:51:21;22.57;85.78
69009;SHT31;56065;52.472;13.380;2023-07-16T03:53:46;22.60;85.66
69009;SHT31;56065;52.472;13.380;2023-07-16T03:56:12;22.60;85.54
69009;SHT31;56065;52.472;13.380;2023-07-16T03:58:37;22.63;85.56
69009;SHT31;56065;52.472;13.380;2023-07-16T04:01:02;22.65;85.62
69009;SHT31;56065;52.472;13.380;2023-07-16T04:03:28;22.72;85.47
69009;SHT31;56065;52.472;13.380;2023-07-16T04:06:04;22.70;85.47
69009;SHT31;56065;52.472;13.380;2023-07-16T04:08:29;22.75;85.45
69009;SHT31;56065;52.472;13.380;2023-07-16T04:10:55;22.77;85.17
69009;SHT31;56065;52.472;13.380;2023-07-16T04:13:20;22.79;85.15
69009;SHT31;56065;52.472;13.380;2023-07-16T04:15:46;22.77;85.09
69009;SHT31;56065;52.472;13.380;2023-07-16T04:18:11;22.85;85.08
69009;SHT31;56065;52.472;13.380;2023-07-16T04:20:36;22.85;85.36
69009;SHT31;56065;52.472;13.380;2023-07-16T04:23:02;22.92;85.39
69009;SHT31;56065;52.472;13.380;2023-07-16T04:25:27;22.93;85.38
69009;SHT31;56065;52.472;13.380;2023-07-16T04:27:53;23.00;85.14
69009;SHT31;56065;52.472;13.380;2023-07-16T04:30:18;23.03;84.89
69009;SHT31;56065;52.472;13.380;2023-07-16T04:32:43;23.03;84.80
69009;SHT31;56065;52.472;13.380;2023-07-16T04:35:09;23.00;84.84
69009;SHT31;56065;52.472;13.380;2023-07-16T04:37:34;22.99;85.21
69009;SHT31;56065;52.472;13.380;2023-07-16T04:39:59;22.95;85.41
69009;SHT31;56065;52.472;13.380;2023-07-16T04:42:25;22.90;85.45
69009;SHT31;56065;52.472;13.380;2023-07-16T04:44:50;22.75;85.60
69009;SHT31;56065;52.472;13.380;2023-07-16T04:47:15;22.77;85.71
69009;SHT31;56065;52.472;13.380;2023-07-16T04:49:41;22.77;85.62
69009;SHT31;56065;52.472;13.380;2023-07-16T04:52:06;22.75;85.77
69009;SHT31;56065;52.472;13.380;2023-07-16T04:54:38;22.80;85.69
69009;SHT31;56065;52.472;13.380;2023-07-16T04:57:05;22.82;85.60
69009;SHT31;56065;52.472;13.380;2023-07-16T04:59:31;22.85;85.46
69009;SHT31;56065;52.472;13.380;2023-07-16T05:01:56;22.85;85.67
69009;SHT31;56065;52.472;13.380;2023-07-16T05:04:22;22.89;85.49
69009;SHT31;56065;52.472;13.380;2023-07-16T05:06:47;22.96;85.22
69009;SHT31;56065;52.472;13.380;2023-07-16T05:09:12;22.97;85.12
69009;SHT31;56065;52.472;13.380;2023-07-16T05:11:38;23.02;85.03
69009;SHT31;56065;52.472;13.380;2023-07-16T05:14:04;23.04;85.27
69009;SHT31;56065;52.472;13.380;2023-07-16T05:16:29;23.18;84.92
69009;SHT31;56065;52.472;13.380;2023-07-16T05:18:54;23.28;84.60
69009;SHT31;56065;52.472;13.380;2023-07-16T05:21:20;23.50;83.82
69009;SHT31;56065;52.472;13.380;2023-07-16T05:23:45;23.64;83.70
69009;SHT31;56065;52.472;13.380;2023-07-16T05:26:10;23.74;83.47
69009;SHT31;56065;52.472;13.380;2023-07-16T05:28:36;23.89;82.63
69009;SHT31;56065;52.472;13.380;2023-07-16T05:31:02;23.99;82.56
69009;SHT31;56065;52.472;13.380;2023-07-16T05:33:28;24.25;81.89
69009;SHT31;56065;52.472;13.380;2023-07-16T05:35:53;24.39;81.37
69009;SHT31;56065;52.472;13.380;2023-07-16T05:38:19;24.47;81.18
69009;SHT31;56065;52.472;13.380;2023-07-16T05:40:44;24.44;80.85
69009;SHT31;56065;52.472;13.380;2023-07-16T05:43:10;24.37;81.08
69009;SHT31;56065;52.472;13.380;2023-07-16T05:45:36;24.41;81.21
69009;SHT31;56065;52.472;13.380;2023-07-16T05:48:02;24.49;80.74
69009;SHT31;56065;52.472;13.380;2023-07-16T05:50:28;24.44;81.09
69009;SHT31;56065;52.472;13.380;2023-07-16T05:52:54;24.46;80.61
69009;SHT31;56065;52.472;13.380;2023-07-16T05:55:19;24.39;80.66
69009;SHT31;56065;52.472;13.380;2023-07-16T05:57:45;24.39;80.83
69009;SHT31;56065;52.472;13.380;2023-07-16T06:00:12;24.40;80.84
69009;SHT31;56065;52.472;13.380;2023-07-16T06:02:38;24.40;81.17
69009;SHT31;56065;52.472;13.380;2023-07-16T06:05:04;24.57;80.89
69009;SHT31;56065;52.472;13.380;2023-07-16T06:07:30;24.67;80.67
69009;SHT31;56065;52.472;13.380;2023-07-16T06:09:56;24.78;79.93
69009;SHT31;56065;52.472;13.380;2023-07-16T06:12:22;24.75;80.41
69009;SHT31;56065;52.472;13.380;2023-07-16T06:14:47;24.77;80.31
69009;SHT31;56065;52.472;13.380;2023-07-16T06:17:12;24.77;80.54
69009;SHT31;56065;52.472;13.380;2023-07-16T06:19:38;25.01;79.98
69009;SHT31;56065;52.472;13.380;2023-07-16T06:22:03;25.14;79.63
69009;SHT31;56065;52.472;13.380;2023-07-16T06:24:29;25.50;79.36
69009;SHT31;56065;52.472;13.380;2023-07-16T06:26:54;25.83;78.49
69009;SHT31;56065;52.472;13.380;2023-07-16T06:29:19;26.52;77.23
69009;SHT31;56065;52.472;13.380;2023-07-16T06:31:55;27.09;75.09
69009;SHT31;56065;52.472;13.380;2023-07-16T06:34:21;27.42;73.40
69009;SHT31;56065;52.472;13.380;2023-07-16T06:36:47;27.76;72.70
69009;SHT31;56065;52.472;13.380;2023-07-16T06:39:12;28.02;71.49
69009;SHT31;56065;52.472;13.380;2023-07-16T06:41:37;28.41;70.61
69009;SHT31;56065;52.472;13.380;2023-07-16T06:44:03;29.20;68.74
69009;SHT31;56065;52.472;13.380;2023-07-16T06:46:28;29.88;67.43
69009;SHT31;56065;52.472;13.380;2023-07-16T06:48:53;30.40;66.55
69009;SHT31;56065;52.472;13.380;2023-07-16T06:51:19;30.85;64.99
69009;SHT31;56065;52.472;13.380;2023-07-16T06:53:44;31.08;64.98
69009;SHT31;56065;52.472;13.380;2023-07-16T06:56:09;31.42;64.43
69009;SHT31;56065;52.472;13.380;2023-07-16T06:58:35;32.33;62.60
69009;SHT31;56065;52.472;13.380;2023-07-16T07:01:00;32.45;61.62
69009;SHT31;56065;52.472;13.380;2023-07-16T07:03:26;31.89;62.15
69009;SHT31;56065;52.472;13.380;2023-07-16T07:05:51;31.36;63.08
69009;SHT31;56065;52.472;13.380;2023-07-16T07:08:16;30.94;63.49
69009;SHT31;56065;52.472;13.380;2023-07-16T07:10:42;30.36;63.77
69009;SHT31;56065;52.472;13.380;2023-07-16T07:13:07;30.41;64.31
69009;SHT31;56065;52.472;13.380;2023-07-16T07:15:32;29.95;64.28
69009;SHT31;56065;52.472;13.380;2023-07-16T07:17:58;29.23;64.94
69009;SHT31;56065;52.472;13.380;2023-07-16T07:20:23;28.79;66.88
69009;SHT31;56065;52.472;13.380;2023-07-16T07:22:48;29.23;66.75
69009;SHT31;56065;52.472;13.380;2023-07-16T07:25:14;29.21;65.63
69009;SHT31;56065;52.472;13.380;2023-07-16T07:27:39;29.21;66.29
69009;SHT31;56065;52.472;13.380;2023-07-16T07:30:05;28.94;66.73
69009;SHT31;56065;52.472;13.380;2023-07-16T07:32:30;29.31;66.62
69009;SHT31;56065;52.472;13.380;2023-07-16T07:34:56;29.65;65.57
69009;SHT31;56065;52.472;13.380;2023-07-16T07:37:21;30.59;65.12
69009;SHT31;56065;52.472;13.380;2023-07-16T07:39:52;31.84;62.67
69009;SHT31;56065;52.472;13.380;2023-07-16T07:42:17;32.35;61.19
69009;SHT31;56065;52.472;13.380;2023-07-16T07:44:43;33.12;59.80
69009;SHT31;56065;52.472;13.380;2023-07-16T07:47:08;32.34;59.63
69009;SHT31;56065;52.472;13.380;2023-07-16T07:49:34;30.92;60.95
69009;SHT31;56065;52.472;13.380;2023-07-16T07:52:00;29.96;63.03
69009;SHT31;56065;52.472;13.380;2023-07-16T07:54:25;29.17;65.36
69009;SHT31;56065;52.472;13.380;2023-07-16T07:56:51;28.76;65.64
69009;SHT31;56065;52.472;13.380;2023-07-16T07:59:16;28.46;66.73
69009;SHT31;56065;52.472;13.380;2023-07-16T08:01:41;28.29;67.24
69009;SHT31;56065;52.472;13.380;2023-07-16T08:04:07;29.33;66.93
69009;SHT31;56065;52.472;13.380;2023-07-16T08:06:32;31.75;63.72
69009;SHT31;56065;52.472;13.380;2023-07-16T08:08:57;34.22;59.78
69009;SHT31;56065;52.472;13.380;2023-07-16T08:11:23;36.04;54.56
69009;SHT31;56065;52.472;13.380;2023-07-16T08:13:49;35.76;53.52
69009;SHT31;56065;52.472;13.380;2023-07-16T08:16:14;34.69;55.23
69009;SHT31;56065;52.472;13.380;2023-07-16T08:18:40;33.45;56.00
69009;SHT31;56065;52.472;13.380;2023-07-16T08:21:05;31.93;57.87
69009;SHT31;56065;52.472;13.380;2023-07-16T08:23:31;30.94;59.33
69009;SHT31;56065;52.472;13.380;2023-07-16T08:25:57;30.39;60.17
69009;SHT31;56065;52.472;13.380;2023-07-16T08:28:22;30.98;59.51
69009;SHT31;56065;52.472;13.380;2023-07-16T08:30:47;32.98;57.88
69009;SHT31;56065;52.472;13.380;2023-07-16T08:33:16;35.20;53.65
69009;SHT31;56065;52.472;13.380;2023-07-16T08:35:41;36.86;50.87
69009;SHT31;56065;52.472;13.380;2023-07-16T08:38:07;38.55;49.00
69009;SHT31;56065;52.472;13.380;2023-07-16T08:40:37;39.84;46.85
69009;SHT31;56065;52.472;13.380;2023-07-16T08:43:05;40.83;45.61
69009;SHT31;56065;52.472;13.380;2023-07-16T08:45:35;40.29;45.92
69009;SHT31;56065;52.472;13.380;2023-07-16T08:48:04;40.20;45.19
69009;SHT31;56065;52.472;13.380;2023-07-16T08:50:30;39.38;45.90
69009;SHT31;56065;52.472;13.380;2023-07-16T08:52:57;38.56;45.94
69009;SHT31;56065;52.472;13.380;2023-07-16T08:55:23;38.63;46.49
69009;SHT31;56065;52.472;13.380;2023-07-16T08:57:48;39.68;45.12
69009;SHT31;56065;52.472;13.380;2023-07-16T09:00:15;40.50;44.33
69009;SHT31;56065;52.472;13.380;2023-07-16T09:02:41;40.80;43.31
69009;SHT31;56065;52.472;13.380;2023-07-16T09:05:07;41.35;42.88
69009;SHT31;56065;52.472;13.380;2023-07-16T09:07:35;41.26;42.42
69009;SHT31;56065;52.472;13.380;2023-07-16T09:10:03;41.82;42.63
69009;SHT31;56065;52.472;13.380;2023-07-16T09:12:28;42.47;40.86
69009;SHT31;56065;52.472;13.380;2023-07-16T09:14:55;43.33;40.40
69009;SHT31;56065;52.472;13.380;2023-07-16T09:17:24;42.83;40.12
69009;SHT31;56065;52.472;13.380;2023-07-16T09:19:53;42.00;41.11
69009;SHT31;56065;52.472;13.380;2023-07-16T09:22:19;42.20;40.63
69009;SHT31;56065;52.472;13.380;2023-07-16T09:24:46;42.86;40.22
69009;SHT31;56065;52.472;13.380;2023-07-16T09:27:12;43.20;40.42
69009;SHT31;56065;52.472;13.380;2023-07-16T09:29:38;43.95;39.73
69009;SHT31;56065;52.472;13.380;2023-07-16T09:32:04;44.38;38.49
69009;SHT31;56065;52.472;13.380;2023-07-16T09:34:32;44.58;38.74
69009;SHT31;56065;52.472;13.380;2023-07-16T09:37:00;44.76;37.76
69009;SHT31;56065;52.472;13.380;2023-07-16T09:39:27;43.97;37.00
69009;SHT31;56065;52.472;13.380;2023-07-16T09:41:53;44.39;37.19
69009;SHT31;56065;52.472;13.380;2023-07-16T09:44:19;44.54;37.69
69009;SHT31;56065;52.472;13.380;2023-07-16T09:46:45;44.25;37.58
69009;SHT31;56065;52.472;13.380;2023-07-16T09:49:11;43.83;38.22
69009;SHT31;56065;52.472;13.380;2023-07-16T09:51:38;42.03;37.96
69009;SHT31;56065;52.472;13.380;2023-07-16T09:54:05;41.42;40.01
69009;SHT31;56065;52.472;13.380;2023-07-16T09:56:39;39.73;40.79
69009;SHT31;56065;52.472;13.380;2023-07-16T09:59:08;38.13;42.93
69009;SHT31;56065;52.472;13.380;2023-07-16T10:01:36;36.63;43.59
69009;SHT31;56065;52.472;13.380;2023-07-16T10:04:14;35.95;47.03
69009;SHT31;56065;52.472;13.380;2023-07-16T10:06:55;37.03;46.01
69009;SHT31;56065;52.472;13.380;2023-07-16T10:09:35;37.45;44.88
69009;SHT31;56065;52.472;13.380;2023-07-16T10:12:11;38.26;43.14
69009;SHT31;56065;52.472;13.380;2023-07-16T10:14:51;39.62;41.92
69009;SHT31;56065;52.472;13.380;2023-07-16T10:17:21;40.63;41.75
69009;SHT31;56065;52.472;13.380;2023-07-16T10:22:43;42.85;38.57
69009;SHT31;56065;52.472;13.380;2023-07-16T10:25:23;43.91;37.20
69009;SHT31;56065;52.472;13.380;2023-07-16T10:27:51;43.71;37.28
69009;SHT31;56065;52.472;13.380;2023-07-16T10:30:17;44.58;37.80
69009;SHT31;56065;52.472;13.380;2023-07-16T10:32:43;44.76;36.36
69009;SHT31;56065;52.472;13.380;2023-07-16T10:35:09;44.90;36.89
69009;SHT31;56065;52.472;13.380;2023-07-16T10:37:35;44.42;38.00
69009;SHT31;56065;52.472;13.380;2023-07-16T10:40:01;43.17;37.40
69009;SHT31;56065;52.472;13.380;2023-07-16T10:42:28;41.65;39.15
69009;SHT31;56065;52.472;13.380;2023-07-16T10:44:58;39.77;40.63
69009;SHT31;56065;52.472;13.380;2023-07-16T10:47:25;39.61;41.72
69009;SHT31;56065;52.472;13.380;2023-07-16T10:49:51;38.08;41.93
69009;SHT31;56065;52.472;13.380;2023-07-16T10:52:20;36.76;43.78
69009;SHT31;56065;52.472;13.380;2023-07-16T10:54:46;35.61;45.39
69009;SHT31;56065;52.472;13.380;2023-07-16T10:57:12;34.86;46.45
69009;SHT31;56065;52.472;13.380;2023-07-16T10:59:39;33.98;47.54
69009;SHT31;56065;52.472;13.380;2023-07-16T11:02:10;33.29;51.32
69009;SHT31;56065;52.472;13.380;2023-07-16T11:04:35;33.32;50.51
69009;SHT31;56065;52.472;13.380;2023-07-16T11:07:08;33.05;51.28
69009;SHT31;56065;52.472;13.380;2023-07-16T11:09:35;34.48;49.68
69009;SHT31;56065;52.472;13.380;2023-07-16T11:12:09;36.43;48.32
69009;SHT31;56065;52.472;13.380;2023-07-16T11:14:35;37.86;47.02
69009;SHT31;56065;52.472;13.380;2023-07-16T11:17:05;38.09;45.49
69009;SHT31;56065;52.472;13.380;2023-07-16T11:19:32;36.66;45.80
69009;SHT31;56065;52.472;13.380;2023-07-16T11:21:57;35.62;46.27
69009;SHT31;56065;52.472;13.380;2023-07-16T11:24:23;34.81;47.83
69009;SHT31;56065;52.472;13.380;2023-07-16T11:26:56;34.02;50.03
69009;SHT31;56065;52.472;13.380;2023-07-16T11:29:23;33.26;51.01
69009;SHT31;56065;52.472;13.380;2023-07-16T11:31:50;33.15;50.54
69009;SHT31;56065;52.472;13.380;2023-07-16T11:34:16;32.68;51.74
69009;SHT31;56065;52.472;13.380;2023-07-16T11:36:42;33.76;51.24
69009;SHT31;56065;52.472;13.380;2023-07-16T11:39:07;35.37;49.44
69009;SHT31;56065;52.472;13.380;2023-07-16T11:41:32;36.14;48.70
69009;SHT31;56065;52.472;13.380;2023-07-16T11:44:00;36.97;46.07
69009;SHT31;56065;52.472;13.380;2023-07-16T11:46:30;37.65;45.55
69009;SHT31;56065;52.472;13.380;2023-07-16T11:48:57;37.90;43.35
69009;SHT31;56065;52.472;13.380;2023-07-16T11:51:22;37.99;43.58
69009;SHT31;56065;52.472;13.380;2023-07-16T11:53:47;38.26;44.14
69009;SHT31;56065;52.472;13.380;2023-07-16T11:56:13;37.85;42.92
69009;SHT31;56065;52.472;13.380;2023-07-16T11:58:38;37.61;41.31
69009;SHT31;56065;52.472;13.380;2023-07-16T12:01:03;37.98;40.30
69009;SHT31;56065;52.472;13.380;2023-07-16T12:03:29;37.85;39.36
69009;SHT31;56065;52.472;13.380;2023-07-16T12:05:54;36.75;40.59
69009;SHT31;56065;52.472;13.380;2023-07-16T12:08:19;36.87;41.11
69009;SHT31;56065;52.472;13.380;2023-07-16T12:10:45;37.27;40.24
69009;SHT31;56065;52.472;13.380;2023-07-16T12:13:10;37.53;39.63
69009;SHT31;56065;52.472;13.380;2023-07-16T12:15:36;37.95;39.21
69009;SHT31;56065;52.472;13.380;2023-07-16T12:18:01;38.26;39.56
69009;SHT31;56065;52.472;13.380;2023-07-16T12:20:26;38.11;37.84
69009;SHT31;56065;52.472;13.380;2023-07-16T12:22:52;37.86;37.89
69009;SHT31;56065;52.472;13.380;2023-07-16T12:25:18;37.51;39.01
69009;SHT31;56065;52.472;13.380;2023-07-16T12:27:44;36.94;39.59
69009;SHT31;56065;52.472;13.380;2023-07-16T12:30:09;36.40;39.82
69009;SHT31;56065;52.472;13.380;2023-07-16T12:32:35;36.35;40.00
69009;SHT31;56065;52.472;13.380;2023-07-16T12:35:01;36.45;40.37
69009;SHT31;56065;52.472;13.380;2023-07-16T12:37:26;36.66;40.50
69009;SHT31;56065;52.472;13.380;2023-07-16T12:39:52;37.47;38.35
69009;SHT31;56065;52.472;13.380;2023-07-16T12:42:17;37.35;38.64
69009;SHT31;56065;52.472;13.380;2023-07-16T12:44:42;37.60;38.84
69009;SHT31;56065;52.472;13.380;2023-07-16T12:47:08;38.02;38.79
69009;SHT31;56065;52.472;13.380;2023-07-16T12:49:34;38.05;38.94
69009;SHT31;56065;52.472;13.380;2023-07-16T12:51:59;38.27;38.56
69009;SHT31;56065;52.472;13.380;2023-07-16T12:54:24;37.81;36.68
69009;SHT31;56065;52.472;13.380;2023-07-16T12:56:50;36.60;39.21
69009;SHT31;56065;52.472;13.380;2023-07-16T12:59:15;35.67;40.03
69009;SHT31;56065;52.472;13.380;2023-07-16T13:01:40;34.71;39.32
69009;SHT31;56065;52.472;13.380;2023-07-16T13:04:06;34.18;40.96
69009;SHT31;56065;52.472;13.380;2023-07-16T13:06:31;33.93;40.91
69009;SHT31;56065;52.472;13.380;2023-07-16T13:08:56;33.25;41.74
69009;SHT31;56065;52.472;13.380;2023-07-16T13:11:22;33.32;42.01
69009;SHT31;56065;52.472;13.380;2023-07-16T13:13:47;32.85;43.95
69009;SHT31;56065;52.472;13.380;2023-07-16T13:16:13;32.98;44.36
69009;SHT31;56065;52.472;13.380;2023-07-16T13:18:38;33.46;43.95
69009;SHT31;56065;52.472;13.380;2023-07-16T13:21:04;33.69;43.11
69009;SHT31;56065;52.472;13.380;2023-07-16T13:23:29;33.73;41.08
69009;SHT31;56065;52.472;13.380;2023-07-16T13:25:55;33.96;41.90
69009;SHT31;56065;52.472;13.380;2023-07-16T13:28:21;34.38;42.48
69009;SHT31;56065;52.472;13.380;2023-07-16T13:30:48;33.78;43.21
69009;SHT31;56065;52.472;13.380;2023-07-16T13:33:14;33.30;42.66
69009;SHT31;56065;52.472;13.380;2023-07-16T13:35:39;33.33;42.39
69009;SHT31;56065;52.472;13.380;2023-07-16T13:38:04;33.84;42.68
69009;SHT31;56065;52.472;13.380;2023-07-16T13:40:30;34.18;41.61
69009;SHT31;56065;52.472;13.380;2023-07-16T13:42:55;34.32;42.27
69009;SHT31;56065;52.472;13.380;2023-07-16T13:45:20;34.25;41.74
69009;SHT31;56065;52.472;13.380;2023-07-16T13:47:46;33.39;42.02
69009;SHT31;56065;52.472;13.380;2023-07-16T13:50:11;33.26;42.75
69009;SHT31;56065;52.472;13.380;2023-07-16T13:52:37;32.64;41.50
69009;SHT31;56065;52.472;13.380;2023-07-16T13:55:02;32.35;43.63
69009;SHT31;56065;52.472;13.380;2023-07-16T13:57:29;32.48;43.63
69009;SHT31;56065;52.472;13.380;2023-07-16T13:59:54;32.16;43.06
69009;SHT31;56065;52.472;13.380;2023-07-16T14:02:20;32.35;42.00
69009;SHT31;56065;52.472;13.380;2023-07-16T14:04:45;32.45;42.44
69009;SHT31;56065;52.472;13.380;2023-07-16T14:07:11;32.91;41.61
69009;SHT31;56065;52.472;13.380;2023-07-16T14:09:36;33.08;41.85
69009;SHT31;56065;52.472;13.380;2023-07-16T14:12:02;33.15;42.75
69009;SHT31;56065;52.472;13.380;2023-07-16T14:14:28;32.61;42.28
69009;SHT31;56065;52.472;13.380;2023-07-16T14:16:53;32.67;42.55
69009;SHT31;56065;52.472;13.380;2023-07-16T14:19:19;32.58;42.73
69009;SHT31;56065;52.472;13.380;2023-07-16T14:21:44;32.41;43.17
69009;SHT31;56065;52.472;13.380;2023-07-16T14:24:10;31.56;42.67
69009;SHT31;56065;52.472;13.380;2023-07-16T14:26:35;31.36;42.46
69009;SHT31;56065;52.472;13.380;2023-07-16T14:29:00;31.07;43.92
69009;SHT31;56065;52.472;13.380;2023-07-16T14:31:26;31.19;44.29
69009;SHT31;56065;52.472;13.380;2023-07-16T14:33:51;31.65;43.27
69009;SHT31;56065;52.472;13.380;2023-07-16T14:36:17;31.89;43.52
69009;SHT31;56065;52.472;13.380;2023-07-16T14:38:42;31.98;43.55
69009;SHT31;56065;52.472;13.380;2023-07-16T14:41:08;32.09;42.88
69009;SHT31;56065;52.472;13.380;2023-07-16T14:43:33;32.21;40.94
69009;SHT31;56065;52.472;13.380;2023-07-16T14:45:59;32.35;42.36
69009;SHT31;56065;52.472;13.380;2023-07-16T14:48:24;32.62;42.44
69009;SHT31;56065;52.472;13.380;2023-07-16T14:50:52;32.68;41.77
69009;SHT31;56065;52.472;13.380;2023-07-16T14:53:18;32.71;41.31
69009;SHT31;56065;52.472;13.380;2023-07-16T14:55:52;32.78;41.49
69009;SHT31;56065;52.472;13.380;2023-07-16T14:58:18;32.51;41.87
69009;SHT31;56065;52.472;13.380;2023-07-16T15:00:45;32.10;41.66
69009;SHT31;56065;52.472;13.380;2023-07-16T15:03:10;31.83;42.19
69009;SHT31;56065;52.472;13.380;2023-07-16T15:05:36;31.76;41.40
69009;SHT31;56065;52.472;13.380;2023-07-16T15:08:02;31.79;42.70
69009;SHT31;56065;52.472;13.380;2023-07-16T15:10:27;31.92;42.68
69009;SHT31;56065;52.472;13.380;2023-07-16T15:12:52;31.67;41.29
69009;SHT31;56065;52.472;13.380;2023-07-16T15:15:18;31.67;42.93
69009;SHT31;56065;52.472;13.380;2023-07-16T15:17:43;31.52;43.43
69009;SHT31;56065;52.472;13.380;2023-07-16T15:20:09;31.55;42.54